Time;durP1;ratioP1;P1;durP2;ratioP2;P2;SDS_P1;SDS_P2;PMS_P1;PMS_P2;Temp;Humidity;BMP_temperature;BMP_pressure;BME280_temperature;BME280_humidity;BME280_pressure;Samples;Min_cycle;Max_cycle;Signal;HPM_P1;HPM_P2
2022/07/14 00:02:15;;;;;;;4.07;2.38;;;;;;;20.28;66.71;101279.81;4966737;28;20033;-67
2022/07/14 00:04:41;;;;;;;2.72;2.47;;;;;;;20.25;66.96;101281.03;4972591;28;20957;-66
2022/07/14 00:07:06;;;;;;;2.60;2.40;;;;;;;20.25;67.19;101281.84;4966013;28;20401;-66
2022/07/14 00:09:31;;;;;;;2.58;2.22;;;;;;;20.31;66.90;101274.06;4973079;28;20386;-66
2022/07/14 00:11:57;;;;;;;4.18;2.60;;;;;;;20.25;66.85;101287.22;4968969;28;20550;-67
2022/07/14 00:14:22;;;;;;;4.15;2.88;;;;;;;20.21;66.99;101291.31;4986185;28;20584;-66
2022/07/14 00:16:48;;;;;;;2.60;2.40;;;;;;;20.24;67.24;101303.53;4956153;28;20017;-66
2022/07/14 00:19:13;;;;;;;4.82;2.70;;;;;;;20.21;67.10;101295.88;4988164;28;20588;-66
2022/07/14 00:21:39;;;;;;;4.22;2.72;;;;;;;20.20;67.06;101284.25;4968326;28;20030;-66
2022/07/14 00:24:04;;;;;;;2.75;2.53;;;;;;;20.22;67.01;101293.00;4988449;28;20091;-66
2022/07/14 00:26:30;;;;;;;4.47;2.50;;;;;;;20.27;66.85;101291.59;4960764;28;20444;-66
2022/07/14 00:28:55;;;;;;;6.03;3.00;;;;;;;20.20;67.11;101303.06;4969384;28;20022;-67
2022/07/14 00:31:21;;;;;;;7.25;3.15;;;;;;;20.20;66.98;101303.06;4955450;28;20050;-66
2022/07/14 00:33:46;;;;;;;9.52;3.00;;;;;;;20.21;67.22;101302.06;4950360;28;20298;-66
2022/07/14 00:36:11;;;;;;;2.83;2.63;;;;;;;20.18;67.41;101297.06;4948115;28;20117;-67
2022/07/14 00:38:37;;;;;;;5.63;3.15;;;;;;;20.25;67.07;101289.91;4934663;28;20037;-66
2022/07/14 00:41:02;;;;;;;5.95;3.10;;;;;;;20.18;67.48;101296.22;4977964;28;20119;-66
2022/07/14 00:43:28;;;;;;;3.42;2.47;;;;;;;20.09;67.55;101287.44;4937164;28;20084;-67
2022/07/14 00:45:53;;;;;;;4.47;2.78;;;;;;;20.13;67.75;101296.78;4932428;28;20076;-65
2022/07/14 00:48:22;;;;;;;3.63;2.75;;;;;;;20.10;67.93;101283.72;4948200;28;20105;-67
2022/07/14 00:50:48;;;;;;;6.70;2.65;;;;;;;20.04;68.08;101287.16;4933905;28;20181;-66
2022/07/14 00:53:13;;;;;;;5.10;2.67;;;;;;;20.05;68.11;101292.34;4934002;28;20014;-66
2022/07/14 00:55:40;;;;;;;3.85;2.58;;;;;;;20.04;68.38;101287.16;4917766;28;20200;-67
2022/07/14 00:58:05;;;;;;;3.92;2.55;;;;;;;19.97;69.39;101284.38;4950188;28;20037;-67
2022/07/14 01:00:31;;;;;;;6.72;2.60;;;;;;;19.90;69.48;101284.28;4917010;28;20053;-66
2022/07/14 01:02:56;;;;;;;4.15;2.60;;;;;;;19.92;69.33;101291.34;4936298;28;20779;-66
2022/07/14 01:05:22;;;;;;;4.50;2.83;;;;;;;19.90;69.32;101289.66;4926897;28;20173;-66
2022/07/14 01:07:47;;;;;;;7.32;3.33;;;;;;;19.89;69.51;101287.16;4947261;28;20095;-67
2022/07/14 01:10:13;;;;;;;4.93;2.60;;;;;;;19.90;69.38;101292.34;4947878;28;20022;-66
2022/07/14 01:12:44;;;;;;;5.18;2.63;;;;;;;19.82;69.58;101292.44;4971287;28;20186;-67
2022/07/14 01:15:10;;;;;;;4.95;2.90;;;;;;;19.84;69.43;101285.03;4969060;28;20021;-66
2022/07/14 01:17:35;;;;;;;7.68;2.70;;;;;;;19.79;69.67;101275.84;4949005;28;20538;-67
2022/07/14 01:20:01;;;;;;;4.50;2.60;;;;;;;19.76;70.12;101270.84;4933949;28;20072;-66
2022/07/14 01:22:26;;;;;;;4.22;2.88;;;;;;;19.74;70.13;101265.63;4950134;28;20261;-65
2022/07/14 01:24:52;;;;;;;5.30;2.70;;;;;;;19.71;70.17;101274.06;4955561;28;20042;-66
2022/07/14 01:27:17;;;;;;;7.13;2.90;;;;;;;19.77;70.50;101281.41;4989933;28;20009;-67
2022/07/14 01:29:42;;;;;;;4.90;2.75;;;;;;;19.77;71.12;101277.84;4979843;28;20026;-65
2022/07/14 01:32:08;;;;;;;3.67;2.80;;;;;;;19.78;71.59;101280.34;4974114;28;20041;-67
2022/07/14 01:34:33;;;;;;;6.00;2.67;;;;;;;19.67;71.42;101268.25;4947771;28;20068;-64
2022/07/14 01:36:58;;;;;;;3.95;2.83;;;;;;;19.69;71.44;101268.88;4950819;28;20010;-67
2022/07/14 01:39:24;;;;;;;5.43;2.80;;;;;;;19.70;71.61;101273.25;4950218;28;20029;-65
2022/07/14 01:41:49;;;;;;;8.57;3.25;;;;;;;19.68;71.81;101261.81;4952676;28;20258;-67
2022/07/14 01:44:15;;;;;;;7.20;3.10;;;;;;;19.66;71.81;101258.50;4951019;28;20033;-65
2022/07/14 01:46:41;;;;;;;6.32;2.95;;;;;;;19.62;71.89;101259.06;4959895;28;20547;-67
2022/07/14 01:49:06;;;;;;;4.63;2.90;;;;;;;19.60;72.25;101274.50;4968462;28;20890;-67
2022/07/14 01:51:32;;;;;;;4.95;3.03;;;;;;;19.56;72.43;101280.25;4981760;28;20402;-66
2022/07/14 01:53:57;;;;;;;5.32;2.90;;;;;;;19.49;72.44;101283.88;4952337;28;20445;-66
2022/07/14 01:56:23;;;;;;;6.15;3.28;;;;;;;19.43;72.74;101288.13;4983623;28;20018;-67
2022/07/14 01:58:48;;;;;;;5.68;3.08;;;;;;;19.46;72.60;101279.69;4984895;28;20436;-67
2022/07/14 02:03:57;;;;;;;;;;;;;;;19.45;72.42;101294.13;4965763;28;20037;-64
2022/07/14 02:06:24;;;;;;;7.90;3.33;;;;;;;19.44;72.19;101289.75;4947419;28;20867;-67
2022/07/14 02:08:49;;;;;;;5.95;3.45;;;;;;;19.44;72.50;101289.75;4948091;28;20025;-66
2022/07/14 02:13:59;;;;;;;;;;;;;;;19.42;72.69;101286.44;4954629;28;20190;-66
2022/07/14 02:16:24;;;;;;;5.43;3.93;;;;;;;19.41;72.33;101275.88;4951731;28;20336;-67
2022/07/14 02:18:49;;;;;;;4.90;3.60;;;;;;;19.39;72.51;101278.75;4951593;28;20029;-67
2022/07/14 02:21:15;;;;;;;6.85;3.90;;;;;;;19.33;72.70;101284.84;4967115;28;20022;-67
2022/07/14 02:23:40;;;;;;;6.55;3.60;;;;;;;19.35;73.23;101272.09;4978438;28;20022;-67
2022/07/14 02:26:12;;;;;;;6.70;3.45;;;;;;;19.38;73.84;101269.03;4981813;28;20034;-67
2022/07/14 02:28:40;;;;;;;7.55;3.42;;;;;;;19.29;73.54;101264.75;4927967;28;20025;-67
2022/07/14 02:31:07;;;;;;;5.28;2.95;;;;;;;19.28;73.79;101265.78;4958326;28;20026;-67
2022/07/14 02:33:32;;;;;;;7.22;3.45;;;;;;;19.20;73.44;101270.19;4967279;28;20943;-67
2022/07/14 02:35:58;;;;;;;9.75;3.20;;;;;;;19.17;73.44;101259.81;4949774;28;20010;-66
2022/07/14 02:38:23;;;;;;;6.85;3.30;;;;;;;19.11;73.53;101257.88;4953079;28;20533;-67
2022/07/14 02:40:49;;;;;;;7.32;3.50;;;;;;;19.06;74.07;101254.88;4954037;28;20444;-66
2022/07/14 02:43:14;;;;;;;7.00;3.58;;;;;;;19.05;74.01;101247.88;4966946;28;20045;-68
2022/07/14 02:45:40;;;;;;;4.90;3.30;;;;;;;18.99;74.11;101237.84;4968666;28;20497;-67
2022/07/14 02:48:08;;;;;;;6.15;3.25;;;;;;;19.04;73.75;101236.28;4984791;28;20006;-67
2022/07/14 02:50:36;;;;;;;5.57;3.50;;;;;;;19.08;73.76;101241.28;4964784;28;20593;-68
2022/07/14 02:53:02;;;;;;;8.38;3.50;;;;;;;19.06;73.92;101241.47;4969014;28;21488;-67
2022/07/14 02:55:28;;;;;;;7.22;3.80;;;;;;;18.98;74.12;101239.69;4968279;28;20002;-67
2022/07/14 02:57:54;;;;;;;6.95;3.40;;;;;;;19.04;74.10;101257.75;4984447;28;20861;-67
2022/07/14 03:00:19;;;;;;;7.18;3.47;;;;;;;19.07;73.96;101256.56;4962328;28;20014;-68
2022/07/14 03:02:45;;;;;;;9.38;3.70;;;;;;;19.05;74.47;101264.78;4966834;28;20014;-67
2022/07/14 03:05:11;;;;;;;6.72;3.50;;;;;;;19.09;74.37;101267.09;4987743;28;20018;-67
2022/07/14 03:07:36;;;;;;;6.40;3.40;;;;;;;19.03;74.25;101268.66;4968193;28;20017;-67
2022/07/14 03:10:01;;;;;;;7.65;3.35;;;;;;;19.01;74.30;101268.00;4956683;28;20037;-67
2022/07/14 03:12:27;;;;;;;6.75;3.63;;;;;;;19.03;74.39;101260.59;4967853;28;20048;-67
2022/07/14 03:14:52;;;;;;;6.18;3.80;;;;;;;19.05;74.39;101266.66;4973727;28;20313;-65
2022/07/14 03:17:18;;;;;;;9.63;3.72;;;;;;;19.05;74.35;101258.59;4967586;28;20980;-67
2022/07/14 03:19:44;;;;;;;5.88;3.60;;;;;;;19.00;74.32;101266.34;4954644;28;20053;-67
2022/07/14 03:22:09;;;;;;;8.75;4.10;;;;;;;19.05;74.53;101261.28;4966633;28;20078;-67
2022/07/14 03:24:34;;;;;;;6.65;3.88;;;;;;;18.98;74.74;101263.84;4953813;28;21063;-67
2022/07/14 03:27:00;;;;;;;5.40;3.83;;;;;;;18.93;75.01;101270.75;4968512;28;20010;-67
2022/07/14 03:29:27;;;;;;;8.88;4.07;;;;;;;18.95;74.94;101271.38;4957026;28;20033;-66
2022/07/14 03:31:53;;;;;;;4.43;3.90;;;;;;;18.86;74.55;101263.38;4970181;28;20557;-66
2022/07/14 03:34:18;;;;;;;5.70;3.70;;;;;;;18.83;74.63;101261.06;4931669;28;20015;-67
2022/07/14 03:36:43;;;;;;;7.18;3.95;;;;;;;18.85;74.60;101260.88;4932972;28;20255;-66
2022/07/14 03:39:09;;;;;;;6.70;4.28;;;;;;;18.90;74.44;101255.84;4948451;28;20041;-67
2022/07/14 03:41:34;;;;;;;7.30;3.75;;;;;;;18.86;74.14;101255.31;4919436;28;20006;-65
2022/07/14 03:44:00;;;;;;;6.07;3.50;;;;;;;18.90;73.98;101250.47;4954240;28;20006;-67
2022/07/14 03:46:25;;;;;;;7.85;3.90;;;;;;;18.85;74.21;101253.69;4955056;28;20831;-67
2022/07/14 03:48:51;;;;;;;5.88;3.83;;;;;;;18.82;74.13;101239.78;4968598;28;20014;-66
2022/07/14 03:51:16;;;;;;;8.40;3.55;;;;;;;18.78;74.67;101236.66;4987381;28;20715;-66
2022/07/14 03:53:42;;;;;;;7.78;3.60;;;;;;;18.77;74.51;101244.84;4967969;28;20826;-67
2022/07/14 03:56:07;;;;;;;6.13;3.50;;;;;;;18.78;74.62;101244.69;4990379;28;20080;-67
2022/07/14 03:58:33;;;;;;;7.20;3.63;;;;;;;18.80;74.36;101256.06;4969406;28;20085;-67
2022/07/14 04:00:58;;;;;;;4.82;3.45;;;;;;;18.77;74.30;101251.06;4982807;28;20833;-66
2022/07/14 04:03:23;;;;;;;6.90;3.70;;;;;;;18.73;74.00;101254.25;4955430;28;20034;-66
2022/07/14 04:05:49;;;;;;;10.93;3.88;;;;;;;18.69;74.72;101243.88;4945230;28;21242;-66
2022/07/14 04:08:14;;;;;;;6.90;3.80;;;;;;;18.66;74.90;101244.25;4947194;28;20427;-66
2022/07/14 04:10:40;;;;;;;6.65;3.42;;;;;;;18.69;75.19;101243.06;4965669;28;20018;-66
2022/07/14 04:13:05;;;;;;;7.85;3.53;;;;;;;18.66;75.15;101244.25;4968572;28;20394;-67
2022/07/14 04:15:31;;;;;;;7.35;3.70;;;;;;;18.68;74.95;101246.75;4968301;28;20692;-66
2022/07/14 04:17:57;;;;;;;8.55;3.78;;;;;;;18.66;74.88;101254.16;4967404;28;20358;-66
2022/07/14 04:20:22;;;;;;;11.48;3.88;;;;;;;18.66;74.92;101252.28;4984659;28;20010;-66
2022/07/14 04:22:48;;;;;;;8.70;3.50;;;;;;;18.56;74.92;101243.66;4967806;28;20030;-65
2022/07/14 04:25:14;;;;;;;7.97;3.58;;;;;;;18.61;74.82;101240.44;4968786;28;20144;-67
2022/07/14 04:27:40;;;;;;;7.38;3.85;;;;;;;18.63;74.71;101239.25;4951309;28;20022;-67
2022/07/14 04:30:09;;;;;;;6.53;3.20;;;;;;;18.61;74.65;101243.13;4960945;28;20526;-66
2022/07/14 04:32:35;;;;;;;7.43;3.50;;;;;;;18.64;75.01;101238.25;4961508;28;20037;-66
2022/07/14 04:35:00;;;;;;;8.02;3.50;;;;;;;18.63;74.72;101225.03;4967449;28;20770;-66
2022/07/14 04:37:26;;;;;;;6.50;3.47;;;;;;;18.64;74.89;101237.38;4960326;28;20535;-66
2022/07/14 04:39:55;;;;;;;8.45;3.50;;;;;;;18.64;74.92;101243.59;4959939;28;20017;-66
2022/07/14 04:42:21;;;;;;;10.82;3.95;;;;;;;18.66;74.92;101248.78;4953841;28;20030;-67
2022/07/14 04:44:47;;;;;;;7.65;3.63;;;;;;;18.60;75.16;101254.84;4950896;28;20432;-68
2022/07/14 04:47:12;;;;;;;9.55;3.50;;;;;;;18.60;75.22;101252.16;4942624;28;20037;-66
2022/07/14 04:52:21;;;;;;;;;;;;;;;18.65;74.60;101241.75;4967970;28;20920;-66
2022/07/14 04:54:47;;;;;;;9.20;3.77;;;;;;;18.59;75.10;101248.66;4968834;28;19904;-66
2022/07/14 04:57:12;;;;;;;5.75;3.65;;;;;;;18.57;75.39;101249.84;4931168;28;20704;-67
2022/07/14 04:59:38;;;;;;;6.95;3.88;;;;;;;18.59;75.97;101253.19;4949484;28;20017;-67
2022/07/14 05:02:04;;;;;;;8.57;4.03;;;;;;;18.60;76.81;101250.34;4965334;28;20013;-66
2022/07/14 05:04:29;;;;;;;8.15;3.78;;;;;;;18.58;76.73;101246.97;4984310;28;20925;-66
2022/07/14 05:06:55;;;;;;;7.30;3.72;;;;;;;18.60;77.33;101252.16;4965586;28;20033;-65
2022/07/14 05:09:21;;;;;;;8.10;3.70;;;;;;;18.58;77.11;101248.84;4968938;28;20812;-66
2022/07/14 05:11:46;;;;;;;6.63;3.50;;;;;;;18.64;77.22;101250.78;4965181;28;20025;-63
2022/07/14 05:14:12;;;;;;;9.38;3.45;;;;;;;18.66;76.80;101249.59;4983215;28;20706;-66
2022/07/14 05:16:38;;;;;;;12.15;4.40;;;;;;;18.67;77.59;101258.47;4947362;28;20416;-64
2022/07/14 05:19:04;;;;;;;9.85;4.00;;;;;;;18.59;77.42;101256.69;4981838;28;20018;-66
2022/07/14 05:21:30;;;;;;;11.07;3.35;;;;;;;18.60;76.81;101255.69;4987462;28;20034;-66
2022/07/14 05:23:56;;;;;;;8.48;4.10;;;;;;;18.65;76.81;101257.84;4983587;28;20082;-64
2022/07/14 05:26:21;;;;;;;9.13;3.85;;;;;;;18.61;76.81;101245.78;4967366;28;20045;-66
2022/07/14 05:28:47;;;;;;;10.35;3.75;;;;;;;18.65;76.75;101244.44;4982471;28;20597;-65
2022/07/14 05:31:12;;;;;;;12.55;4.03;;;;;;;18.67;76.43;101251.28;4972632;28;20290;-66
2022/07/14 05:33:38;;;;;;;7.93;3.67;;;;;;;18.71;76.21;101252.59;4946683;28;20778;-64
2022/07/14 05:36:04;;;;;;;10.40;3.85;;;;;;;18.76;75.93;101256.59;4949631;28;20189;-65
2022/07/14 05:38:31;;;;;;;9.35;3.63;;;;;;;18.81;75.95;101255.06;4967060;28;20504;-66
2022/07/14 05:40:58;;;;;;;9.80;3.92;;;;;;;18.88;76.02;101250.66;4982852;28;20006;-63
2022/07/14 05:43:23;;;;;;;10.10;4.03;;;;;;;18.91;75.66;101251.31;4963273;28;20018;-66
2022/07/14 05:45:49;;;;;;;8.70;3.92;;;;;;;18.96;75.72;101259.66;4969079;28;20896;-66
2022/07/14 05:48:14;;;;;;;9.07;3.83;;;;;;;19.02;75.04;101258.94;4946432;28;20098;-66
2022/07/14 05:50:39;;;;;;;5.20;3.63;;;;;;;19.12;74.54;101256.84;4965269;28;20358;-66
2022/07/14 05:53:05;;;;;;;11.10;3.53;;;;;;;19.05;74.51;101255.91;4984490;28;20387;-66
2022/07/14 05:55:31;;;;;;;9.80;3.38;;;;;;;19.10;74.28;101256.19;4983920;28;20361;-66
2022/07/14 05:57:56;;;;;;;7.90;3.55;;;;;;;19.12;74.60;101248.81;4947443;28;20069;-66
2022/07/14 06:00:21;;;;;;;8.23;3.72;;;;;;;19.16;74.26;101247.44;4946020;28;20014;-66
2022/07/14 06:02:47;;;;;;;6.60;3.42;;;;;;;19.17;74.35;101246.41;4931786;28;20859;-64
2022/07/14 06:05:12;;;;;;;8.27;3.75;;;;;;;19.24;74.38;101245.69;4982934;28;20483;-66
2022/07/14 06:07:38;;;;;;;12.68;3.42;;;;;;;19.30;73.58;101251.13;4965977;28;20052;-64
2022/07/14 06:10:04;;;;;;;7.18;3.33;;;;;;;19.33;73.59;101258.84;4983704;28;20238;-66
2022/07/14 06:12:29;;;;;;;9.77;3.38;;;;;;;19.41;73.13;101267.84;4949123;28;20289;-66
2022/07/14 06:14:55;;;;;;;8.50;3.50;;;;;;;19.49;72.79;101268.59;4981017;28;20203;-66
2022/07/14 06:17:20;;;;;;;8.80;3.47;;;;;;;19.52;72.54;101268.22;4985665;28;20961;-66
2022/07/14 06:19:46;;;;;;;6.40;2.88;;;;;;;19.57;72.13;101273.03;4979984;28;20030;-66
2022/07/14 06:22:11;;;;;;;8.48;3.65;;;;;;;19.64;71.82;101276.66;4987373;28;20755;-66
2022/07/14 06:24:37;;;;;;;7.78;3.40;;;;;;;19.61;70.95;101276.19;4979252;28;20048;-66
2022/07/14 06:27:03;;;;;;;8.40;3.20;;;;;;;19.66;71.55;101271.94;4947949;28;20302;-66
2022/07/14 06:29:28;;;;;;;11.02;3.70;;;;;;;19.72;71.58;101273.88;4932137;28;20069;-65
2022/07/14 06:31:55;;;;;;;8.15;3.30;;;;;;;19.80;71.21;101266.78;4943872;28;20491;-66
2022/07/14 06:34:22;;;;;;;11.00;3.20;;;;;;;19.88;71.14;101270.22;4946907;28;20444;-65
2022/07/14 06:36:47;;;;;;;10.68;3.45;;;;;;;19.96;70.29;101265.78;4943288;28;20018;-65
2022/07/14 06:39:14;;;;;;;6.85;3.20;;;;;;;19.91;69.70;101258.25;4949571;28;20223;-65
2022/07/14 06:41:39;;;;;;;8.40;3.45;;;;;;;19.89;69.59;101263.00;4946078;28;20087;-65
2022/07/14 06:44:04;;;;;;;11.23;3.38;;;;;;;19.98;70.06;101263.72;4933800;28;20202;-68
2022/07/14 06:46:32;;;;;;;8.02;3.33;;;;;;;19.98;69.72;101269.09;4946888;28;20916;-66
2022/07/14 06:48:57;;;;;;;6.88;3.20;;;;;;;19.99;69.18;101266.22;4964130;28;20069;-66
2022/07/14 06:51:23;;;;;;;6.15;3.20;;;;;;;19.94;69.18;101273.16;4927952;28;20430;-66
2022/07/14 06:53:48;;;;;;;13.32;3.47;;;;;;;19.88;69.56;101277.44;4964723;28;20167;-65
2022/07/14 06:56:14;;;;;;;8.55;3.85;;;;;;;19.97;69.84;101267.44;4942998;28;20799;-66
2022/07/14 06:58:39;;;;;;;11.77;4.22;;;;;;;20.08;68.52;101275.03;4946449;28;20014;-65
2022/07/14 07:01:05;;;;;;;15.38;4.10;;;;;;;20.08;68.24;101269.66;4943397;28;21007;-66
2022/07/14 07:03:30;;;;;;;11.20;3.70;;;;;;;20.32;68.24;101262.28;4946938;28;20351;-65
2022/07/14 07:08:39;;;;;;;;;;;;;;;20.46;67.53;101261.44;4946917;28;20014;-65
2022/07/14 07:11:05;;;;;;;10.17;3.70;;;;;;;20.48;67.51;101270.13;4962618;28;20327;-66
2022/07/14 07:13:30;;;;;;;9.90;4.07;;;;;;;20.42;66.98;101265.53;4930798;28;20129;-65
2022/07/14 07:15:56;;;;;;;8.63;3.97;;;;;;;20.47;66.46;101278.38;4942969;28;20286;-66
2022/07/14 07:18:21;;;;;;;10.80;3.80;;;;;;;20.64;66.64;101281.69;4928315;28;20997;-65
2022/07/14 07:20:47;;;;;;;10.35;3.75;;;;;;;20.91;65.74;101280.97;4963092;28;20575;-66
2022/07/14 07:23:12;;;;;;;9.18;3.33;;;;;;;20.88;65.54;101286.72;4945361;28;20010;-65
2022/07/14 07:25:38;;;;;;;8.15;3.50;;;;;;;20.92;65.65;101277.22;4972160;28;20030;-65
2022/07/14 07:28:03;;;;;;;9.75;3.40;;;;;;;20.91;64.41;101280.97;4967993;28;20018;-66
2022/07/14 07:30:29;;;;;;;8.38;3.20;;;;;;;20.96;64.67;101266.94;4947679;28;20006;-66
2022/07/14 07:32:54;;;;;;;10.73;3.25;;;;;;;20.82;64.22;101265.97;4926910;28;20133;-65
2022/07/14 07:35:19;;;;;;;8.60;2.97;;;;;;;20.90;64.62;101273.91;4943550;28;20038;-67
2022/07/14 07:37:45;;;;;;;12.23;3.42;;;;;;;20.98;64.08;101266.72;4963235;28;20434;-66
2022/07/14 07:40:11;;;;;;;10.82;3.47;;;;;;;21.04;64.45;101268.63;4926425;28;20321;-65
2022/07/14 07:42:36;;;;;;;9.75;3.00;;;;;;;21.05;63.40;101270.31;4964817;28;20172;-66
2022/07/14 07:45:02;;;;;;;9.02;2.80;;;;;;;21.04;62.81;101279.41;4934879;28;20141;-64
2022/07/14 07:47:28;;;;;;;9.13;3.00;;;;;;;21.00;63.33;101267.38;4980069;28;20268;-66
2022/07/14 07:49:53;;;;;;;10.18;3.38;;;;;;;21.19;62.94;101273.94;4968140;28;20777;-65
2022/07/14 07:52:20;;;;;;;9.90;3.15;;;;;;;21.37;63.11;101258.16;4985519;28;20362;-66
2022/07/14 07:54:45;;;;;;;11.85;3.28;;;;;;;21.51;61.28;101264.47;4971733;28;20006;-66
2022/07/14 07:57:11;;;;;;;10.40;2.75;;;;;;;21.50;60.97;101256.59;4965820;28;20017;-64
2022/07/14 07:59:37;;;;;;;7.75;2.90;;;;;;;21.64;59.45;101262.94;4977043;28;20037;-65
2022/07/14 08:02:03;;;;;;;8.65;3.00;;;;;;;21.61;60.15;101262.28;4959038;28;20027;-66
2022/07/14 08:04:28;;;;;;;8.00;2.90;;;;;;;21.60;60.65;101260.63;4946179;28;20018;-66
2022/07/14 08:06:54;;;;;;;6.03;2.25;;;;;;;21.54;58.41;101274.88;4932971;28;20958;-66
2022/07/14 08:09:19;;;;;;;7.32;2.28;;;;;;;21.58;59.07;101268.06;4941871;28;20026;-66
2022/07/14 08:11:44;;;;;;;7.68;2.90;;;;;;;21.72;58.47;101260.09;4948477;28;20029;-66
2022/07/14 08:16:54;;;;;;;;;;;;;;;22.06;58.84;101261.09;4949139;28;20033;-66
2022/07/14 08:19:19;;;;;;;8.35;2.30;;;;;;;22.37;58.59;101257.09;4948848;28;19900;-66
2022/07/14 08:21:45;;;;;;;8.10;2.40;;;;;;;22.52;57.52;101251.50;4930495;28;20045;-66
2022/07/14 08:24:10;;;;;;;7.65;2.53;;;;;;;22.63;56.66;101243.69;4945019;28;20022;-66
2022/07/14 08:26:36;;;;;;;6.50;2.38;;;;;;;22.43;56.74;101240.09;4983709;28;20054;-65
2022/07/14 08:29:01;;;;;;;8.48;2.42;;;;;;;22.27;56.07;101236.69;5000398;28;20390;-66
2022/07/14 08:31:26;;;;;;;7.97;2.60;;;;;;;22.10;56.52;101240.78;4969745;28;21002;-67
2022/07/14 08:33:52;;;;;;;10.68;3.33;;;;;;;22.08;57.42;101232.06;4942428;28;20011;-66
2022/07/14 08:36:17;;;;;;;10.10;2.60;;;;;;;22.33;57.30;101223.44;4960319;28;20052;-66
2022/07/14 08:38:43;;;;;;;4.28;2.65;;;;;;;22.76;53.58;101228.53;4963083;28;20076;-66
2022/07/14 08:41:10;;;;;;;4.60;2.00;;;;;;;22.81;49.08;101218.78;4983490;28;20375;-66
2022/07/14 08:43:36;;;;;;;3.53;2.22;;;;;;;22.86;46.32;101218.16;4972104;28;20006;-66
2022/07/14 08:46:03;;;;;;;5.50;1.80;;;;;;;22.71;46.73;101214.84;4962535;28;20921;-65
2022/07/14 08:48:29;;;;;;;3.30;1.60;;;;;;;23.10;45.41;101213.19;4952904;28;20492;-66
2022/07/14 08:50:55;;;;;;;4.72;1.63;;;;;;;23.13;44.85;101207.41;4949412;28;22338;-65
2022/07/14 08:53:20;;;;;;;4.22;1.45;;;;;;;22.97;46.00;101212.16;4978430;28;20018;-66
2022/07/14 08:55:47;;;;;;;3.72;1.33;;;;;;;22.98;44.23;101204.88;4944207;28;20038;-67
2022/07/14 08:58:13;;;;;;;6.10;1.83;;;;;;;23.06;44.82;101196.56;4937086;28;20058;-65
2022/07/14 09:00:38;;;;;;;5.65;1.45;;;;;;;23.30;44.66;101199.69;4974307;28;20431;-66
2022/07/14 09:03:05;;;;;;;5.32;2.50;;;;;;;23.59;46.60;101203.78;4964636;28;20419;-64
2022/07/14 09:05:30;;;;;;;4.38;1.88;;;;;;;23.66;45.88;101207.28;4960205;28;20702;-66
2022/07/14 09:07:56;;;;;;;4.78;1.95;;;;;;;23.76;44.99;101208.72;4968296;28;20074;-66
2022/07/14 09:10:26;;;;;;;3.88;1.90;;;;;;;23.79;45.73;101208.31;4962862;28;20059;-66
2022/07/14 09:13:09;;;;;;;3.42;1.83;;;;;;;23.93;44.71;101209.94;4965334;28;20034;-64
2022/07/14 09:15:46;;;;;;;4.57;1.80;;;;;;;24.09;44.15;101211.31;4982384;28;20022;-65
2022/07/14 09:18:25;;;;;;;4.13;2.00;;;;;;;23.92;43.60;101205.56;4953585;28;20464;-66
2022/07/14 09:20:52;;;;;;;5.97;2.33;;;;;;;24.33;45.16;101203.50;4971515;28;20106;-66
2022/07/14 09:23:31;;;;;;;4.10;1.90;;;;;;;24.34;44.93;101203.28;4959614;28;20449;-66
2022/07/14 09:26:19;;;;;;;4.63;2.00;;;;;;;24.59;45.39;101199.78;4971865;28;20037;-67
2022/07/14 09:28:46;;;;;;;2.95;1.83;;;;;;;24.85;42.48;101203.38;4949805;28;20092;-65
2022/07/14 09:31:25;;;;;;;2.75;1.55;;;;;;;24.84;43.19;101197.13;4973612;28;20033;-66
2022/07/14 09:33:52;;;;;;;2.40;1.40;;;;;;;24.79;41.04;101199.69;4978293;28;20022;-67
2022/07/14 09:36:26;;;;;;;3.20;1.50;;;;;;;24.85;40.60;101200.66;4955644;28;20750;-65
2022/07/14 09:38:51;;;;;;;6.50;1.63;;;;;;;25.01;39.68;101197.38;4966440;28;20906;-66
2022/07/14 09:41:17;;;;;;;3.80;1.52;;;;;;;25.02;40.08;101196.34;4964811;28;20378;-66
2022/07/14 09:44:05;;;;;;;5.15;1.95;;;;;;;24.98;40.19;101208.66;4963931;28;20129;-66
2022/07/14 09:46:46;;;;;;;2.53;1.40;;;;;;;25.10;40.21;101213.34;4955111;28;20028;-66
2022/07/14 09:49:12;;;;;;;4.47;1.38;;;;;;;25.49;39.05;101208.63;4984912;28;20459;-66
2022/07/14 09:52:03;;;;;;;1.77;1.67;;;;;;;25.92;37.92;101207.72;4980362;28;20562;-66
2022/07/14 09:54:51;;;;;;;2.38;1.40;;;;;;;26.24;35.26;101210.22;4981995;28;20057;-66
2022/07/14 09:57:17;;;;;;;4.63;2.17;;;;;;;26.18;34.26;101213.88;4981988;28;20834;-66
2022/07/14 09:59:56;;;;;;;4.13;1.83;;;;;;;26.22;35.27;101204.22;4980736;28;20006;-64
2022/07/14 10:02:29;;;;;;;2.95;1.67;;;;;;;26.34;34.87;101215.97;4977761;28;20689;-66
2022/07/14 10:04:56;;;;;;;5.50;1.80;;;;;;;26.48;36.20;101211.16;4969903;28;20177;-66
2022/07/14 10:07:23;;;;;;;4.13;1.70;;;;;;;26.51;36.98;101205.28;4958038;28;20033;-65
2022/07/14 10:10:05;;;;;;;4.43;1.83;;;;;;;26.59;35.76;101214.94;4975398;28;20014;-66
2022/07/14 10:12:30;;;;;;;4.53;1.50;;;;;;;26.68;35.26;101204.56;4974840;28;20033;-67
2022/07/14 10:15:00;;;;;;;3.67;1.73;;;;;;;26.44;35.55;101214.56;4979960;28;20309;-67
2022/07/14 10:17:27;;;;;;;8.27;1.50;;;;;;;26.49;34.74;101211.97;4979788;28;20010;-67
2022/07/14 10:19:52;;;;;;;4.82;1.60;;;;;;;26.76;34.67;101211.59;4969552;28;20262;-65
2022/07/14 10:22:18;;;;;;;2.13;1.25;;;;;;;26.70;32.05;101211.47;4977399;28;20009;-66
2022/07/14 10:24:43;;;;;;;2.00;1.45;;;;;;;26.30;31.71;101201.19;4984819;28;20933;-67
2022/07/14 10:27:09;;;;;;;3.30;1.15;;;;;;;26.21;34.57;101213.41;4946012;28;20347;-67
2022/07/14 10:29:34;;;;;;;3.40;1.77;;;;;;;26.05;33.76;101207.56;4968953;28;20353;-66
2022/07/14 10:32:03;;;;;;;3.13;1.30;;;;;;;26.03;32.62;101214.28;4953424;28;20120;-66
2022/07/14 10:34:37;;;;;;;1.83;1.52;;;;;;;26.50;33.31;101219.06;4972879;28;20036;-66
2022/07/14 10:37:14;;;;;;;3.72;1.60;;;;;;;26.79;31.04;101214.66;4938053;28;20514;-66
2022/07/14 10:40:03;;;;;;;2.97;1.83;;;;;;;26.59;32.18;101201.38;4929233;28;20021;-67
2022/07/14 10:42:34;;;;;;;3.95;1.10;;;;;;;27.75;30.84;101209.00;4964962;28;20026;-66
2022/07/14 10:45:03;;;;;;;3.20;1.45;;;;;;;28.23;30.99;101197.94;4966187;28;20018;-66
2022/07/14 10:47:51;;;;;;;2.22;1.30;;;;;;;28.85;30.21;101199.03;4969162;28;20067;-66
2022/07/14 10:50:20;;;;;;;2.17;1.25;;;;;;;29.21;30.17;101203.13;4969161;28;20010;-67
2022/07/14 10:52:55;;;;;;;2.53;1.40;;;;;;;29.22;28.28;101206.66;4985367;28;20040;-67
2022/07/14 10:55:32;;;;;;;3.45;1.40;;;;;;;29.31;28.23;101201.66;4986473;28;20065;-66
2022/07/14 10:58:04;;;;;;;2.35;1.20;;;;;;;29.10;27.15;101196.69;4983783;28;20944;-67
2022/07/14 11:00:39;;;;;;;2.47;1.00;;;;;;;29.50;28.84;101202.16;4978807;28;20369;-64
2022/07/14 11:03:19;;;;;;;3.65;1.55;;;;;;;29.46;29.78;101204.59;4983744;28;20097;-67
2022/07/14 11:06:09;;;;;;;3.45;2.20;;;;;;;29.56;28.91;101199.25;4963268;28;20021;-66
2022/07/14 11:08:38;;;;;;;5.95;4.45;;;;;;;30.10;27.23;101200.47;4962329;28;20185;-68
2022/07/14 11:11:10;;;;;;;2.92;2.08;;;;;;;30.19;26.90;101185.28;4982584;28;20838;-67
2022/07/14 11:14:00;;;;;;;2.53;1.73;;;;;;;30.12;26.43;101174.56;4980581;28;20803;-65
2022/07/14 11:16:44;;;;;;;3.33;1.33;;;;;;;30.56;27.68;101183.69;4970902;28;20442;-67
2022/07/14 11:19:20;;;;;;;6.05;1.40;;;;;;;30.73;26.90;101189.03;4960913;28;20109;-68
2022/07/14 11:22:11;;;;;;;2.13;1.40;;;;;;;30.74;25.00;101185.22;4962236;28;20955;-67
2022/07/14 11:24:47;;;;;;;2.97;1.15;;;;;;;30.80;24.64;101192.38;4963460;28;20400;-66
2022/07/14 11:27:25;;;;;;;2.47;1.23;;;;;;;30.89;25.52;101188.06;4931612;28;20639;-66
2022/07/14 11:29:51;;;;;;;1.00;0.88;;;;;;;30.78;24.68;101187.19;4948324;28;20518;-67
2022/07/14 11:32:33;;;;;;;1.70;1.10;;;;;;;31.16;25.10;101177.06;4928609;28;20917;-67
2022/07/14 11:37:57;;;;;;;1.98;1.35;;;;;;;31.67;24.81;101179.22;4955034;28;20017;-67
2022/07/14 11:40:44;;;;;;;2.75;1.67;;;;;;;31.70;23.86;101183.34;4948411;28;20033;-66
2022/07/14 11:43:30;;;;;;;1.33;1.23;;;;;;;31.61;24.96;101188.50;4964189;28;20022;-66
2022/07/14 11:45:59;;;;;;;3.15;1.30;;;;;;;32.00;25.81;101179.06;4966292;28;20087;-67